createdAt,value
2019-05-20T00:02:03.737Z,15.30
2019-05-20T00:04:31.138Z,15.20
2019-05-20T00:07:00.112Z,15.30
2019-05-20T00:09:28.882Z,15.10
2019-05-20T00:11:56.460Z,15.20
2019-05-20T00:14:24.067Z,15.20
2019-05-20T00:16:54.693Z,15.20
2019-05-20T00:19:22.179Z,15.20
2019-05-20T00:24:45.936Z,15.30
2019-05-20T00:27:13.325Z,15.30
2019-05-20T00:29:40.786Z,15.30
2019-05-20T00:32:08.272Z,15.30
2019-05-20T00:34:35.861Z,15.30
2019-05-20T00:37:03.365Z,15.30
2019-05-20T00:39:30.707Z,15.50
2019-05-20T00:41:58.348Z,15.20
2019-05-20T00:44:25.688Z,15.20
2019-05-20T00:46:53.071Z,15.20
2019-05-20T00:49:20.917Z,15.20
2019-05-20T00:51:48.595Z,15.30
2019-05-20T00:54:16.056Z,15.30
2019-05-20T00:56:43.787Z,15.30
2019-05-20T00:59:11.416Z,15.30
2019-05-20T01:01:38.923Z,15.40
2019-05-20T01:04:06.542Z,15.40
2019-05-20T01:06:34.035Z,15.50
2019-05-20T01:09:01.632Z,15.50
2019-05-20T01:11:29.596Z,15.50
2019-05-20T01:13:57.185Z,15.50
2019-05-20T01:16:25.645Z,15.60
2019-05-20T01:18:53.161Z,15.60
2019-05-20T01:21:20.694Z,15.60
2019-05-20T01:23:48.123Z,15.60
2019-05-20T01:26:15.493Z,15.70
2019-05-20T01:28:43.011Z,15.70
2019-05-20T01:31:10.440Z,15.70
2019-05-20T01:33:38.432Z,15.70
2019-05-20T01:36:05.988Z,15.70
2019-05-20T01:38:33.557Z,15.70
2019-05-20T01:41:01.097Z,15.70
2019-05-20T01:43:28.582Z,15.70
2019-05-20T01:45:56.038Z,15.70
2019-05-20T01:48:23.381Z,15.70
2019-05-20T01:50:51.059Z,15.70
2019-05-20T01:53:18.619Z,15.70
2019-05-20T01:55:45.994Z,15.60
2019-05-20T01:58:13.702Z,15.60
2019-05-20T02:00:41.294Z,15.60
2019-05-20T02:03:08.824Z,15.60
2019-05-20T02:05:36.639Z,15.60
2019-05-20T02:08:04.250Z,15.60
2019-05-20T02:10:31.810Z,15.60
2019-05-20T02:12:59.492Z,15.60
2019-05-20T02:15:33.055Z,15.60
2019-05-20T02:18:00.587Z,15.50
2019-05-20T02:20:28.090Z,15.50
2019-05-20T02:23:13.212Z,15.50
2019-05-20T02:25:41.487Z,15.40
2019-05-20T02:28:09.015Z,15.40
2019-05-20T02:30:36.653Z,15.30
2019-05-20T02:33:04.134Z,15.30
2019-05-20T02:35:31.491Z,15.30
2019-05-20T02:37:58.906Z,15.30
2019-05-20T02:40:26.374Z,15.30
2019-05-20T02:42:53.954Z,15.30
2019-05-20T02:45:21.659Z,15.30
2019-05-20T02:47:49.160Z,15.30
2019-05-20T02:50:17.153Z,15.30
2019-05-20T02:52:45.363Z,15.20
2019-05-20T02:55:12.985Z,15.20
2019-05-20T02:57:40.416Z,15.20
2019-05-20T03:00:08.500Z,15.10
2019-05-20T03:02:36.076Z,15.20
2019-05-20T03:05:04.009Z,15.10
2019-05-20T03:07:31.444Z,15.10
2019-05-20T03:09:58.925Z,15.10
2019-05-20T03:12:26.343Z,15.10
2019-05-20T03:14:53.977Z,15.10
2019-05-20T03:17:21.324Z,15.10
2019-05-20T03:19:48.854Z,15.20
2019-05-20T03:22:16.301Z,15.20
2019-05-20T03:24:43.762Z,15.20
2019-05-20T03:27:11.248Z,15.20
2019-05-20T03:29:38.820Z,15.30
2019-05-20T03:32:06.349Z,15.30
2019-05-20T03:34:58.540Z,15.40
2019-05-20T03:37:03.228Z,15.50
2019-05-20T03:39:30.859Z,15.50
2019-05-20T03:41:59.240Z,15.60
2019-05-20T03:44:26.662Z,15.60
2019-05-20T03:46:54.073Z,15.70
2019-05-20T03:49:21.641Z,15.70
2019-05-20T03:51:52.368Z,15.80
2019-05-20T03:54:18.631Z,15.80
2019-05-20T03:56:46.547Z,15.90
2019-05-20T03:59:14.046Z,15.90
2019-05-20T04:01:41.543Z,15.90
2019-05-20T04:04:09.866Z,16.10
2019-05-20T04:06:37.209Z,16.20
2019-05-20T04:09:07.684Z,16.30
2019-05-20T04:11:35.269Z,16.40
2019-05-20T04:14:02.969Z,16.40
2019-05-20T04:16:31.096Z,16.50
2019-05-20T04:18:58.752Z,16.50
2019-05-20T04:21:26.209Z,16.50
2019-05-20T04:23:53.803Z,16.50
2019-05-20T04:26:21.144Z,16.60
2019-05-20T04:28:48.764Z,16.60
2019-05-20T04:31:16.204Z,16.60
2019-05-20T04:33:45.215Z,16.60
2019-05-20T04:36:12.666Z,16.70
2019-05-20T04:38:40.126Z,16.70
2019-05-20T04:41:07.862Z,16.70
2019-05-20T04:43:35.346Z,16.70
2019-05-20T04:46:03.004Z,16.70
2019-05-20T04:48:31.451Z,16.70
2019-05-20T04:50:59.427Z,16.70
2019-05-20T04:53:27.014Z,16.80
2019-05-20T04:55:54.435Z,16.90
2019-05-20T04:58:21.974Z,17.10
2019-05-20T05:00:55.021Z,17.30
2019-05-20T05:03:23.281Z,17.50
2019-05-20T05:05:50.955Z,17.60
2019-05-20T05:08:18.920Z,17.60
2019-05-20T05:10:46.562Z,17.60
2019-05-20T05:13:14.104Z,17.60
2019-05-20T05:15:41.842Z,17.60
2019-05-20T05:18:09.813Z,17.60
2019-05-20T05:20:37.501Z,17.50
2019-05-20T05:23:05.987Z,17.40
2019-05-20T05:25:34.026Z,17.30
2019-05-20T05:28:01.604Z,17.30
2019-05-20T05:30:29.452Z,17.20
2019-05-20T05:32:57.121Z,17.20
2019-05-20T05:35:24.705Z,17.10
2019-05-20T05:37:52.442Z,17.10
2019-05-20T05:40:27.169Z,17.10
2019-05-20T05:42:54.758Z,17.10
2019-05-20T05:45:29.514Z,17.20
2019-05-20T05:47:57.510Z,17.30
2019-05-20T05:50:25.103Z,17.30
2019-05-20T05:52:52.584Z,17.40
2019-05-20T05:55:19.991Z,17.50
2019-05-20T05:57:47.712Z,17.70
2019-05-20T06:00:15.674Z,18.00
2019-05-20T06:02:43.197Z,18.30
2019-05-20T06:05:10.901Z,18.50
2019-05-20T06:07:38.715Z,18.80
2019-05-20T06:10:07.161Z,18.90
2019-05-20T06:12:34.753Z,19.00
2019-05-20T06:15:02.296Z,19.20
2019-05-20T06:17:29.967Z,19.30
2019-05-20T06:19:57.607Z,19.40
2019-05-20T06:22:25.157Z,19.50
2019-05-20T06:24:53.554Z,19.60
2019-05-20T06:27:20.984Z,19.60
2019-05-20T06:29:48.545Z,19.80
2019-05-20T06:32:16.064Z,20.00
2019-05-20T06:34:43.637Z,20.30
2019-05-20T06:37:13.252Z,20.50
2019-05-20T06:39:40.832Z,20.70
2019-05-20T06:42:10.271Z,20.80
2019-05-20T06:44:51.739Z,21.00
2019-05-20T06:47:07.955Z,21.00
2019-05-20T06:49:35.284Z,21.10
2019-05-20T06:52:02.804Z,21.20
2019-05-20T06:54:30.349Z,21.30
2019-05-20T06:56:57.884Z,21.50
2019-05-20T06:59:25.359Z,21.70
2019-05-20T07:01:52.838Z,21.90
2019-05-20T07:04:20.428Z,22.10
2019-05-20T07:06:47.848Z,22.40
2019-05-20T07:09:16.337Z,22.70
2019-05-20T07:11:52.241Z,22.90
2019-05-20T07:14:13.139Z,23.10
2019-05-20T07:16:41.762Z,23.40
2019-05-20T07:19:09.993Z,23.60
2019-05-20T07:21:38.318Z,23.80
2019-05-20T07:24:06.116Z,24.00
2019-05-20T07:26:34.001Z,24.20
2019-05-20T07:29:01.607Z,24.40
2019-05-20T07:31:29.099Z,24.60
2019-05-20T07:33:56.538Z,25.00
2019-05-20T07:36:23.901Z,25.30
2019-05-20T07:38:51.580Z,25.90
2019-05-20T07:41:18.962Z,26.60
2019-05-20T07:43:47.784Z,27.30
2019-05-20T07:46:15.931Z,28.00
2019-05-20T07:48:46.190Z,28.80
2019-05-20T07:51:14.161Z,29.50
2019-05-20T07:53:42.055Z,30.00
2019-05-20T07:56:15.381Z,30.00
2019-05-20T07:58:49.013Z,29.80
2019-05-20T08:01:16.644Z,29.70
2019-05-20T08:03:44.339Z,29.50
2019-05-20T08:06:13.511Z,29.60
2019-05-20T08:08:41.074Z,29.90
2019-05-20T08:11:08.672Z,30.00
2019-05-20T08:13:36.046Z,30.30
2019-05-20T08:16:03.591Z,30.60
2019-05-20T08:18:31.187Z,31.30
2019-05-20T08:20:58.910Z,31.50
2019-05-20T08:23:26.459Z,31.00
2019-05-20T08:25:55.061Z,30.50
2019-05-20T08:28:22.403Z,29.80
2019-05-20T08:30:49.998Z,29.40
2019-05-20T08:33:17.501Z,28.90
2019-05-20T08:35:45.021Z,28.50
2019-05-20T08:38:12.443Z,28.20
2019-05-20T08:40:41.421Z,27.80
2019-05-20T08:43:09.079Z,27.40
2019-05-20T08:45:36.595Z,27.00
2019-05-20T08:48:05.404Z,26.80
2019-05-20T08:50:32.948Z,26.60
2019-05-20T08:53:00.913Z,26.50
2019-05-20T08:55:28.544Z,26.40
2019-05-20T08:57:56.134Z,26.20
2019-05-20T09:00:24.555Z,26.00
2019-05-20T09:02:52.983Z,26.00
2019-05-20T09:05:20.443Z,25.90
2019-05-20T09:08:01.462Z,25.90
2019-05-20T09:10:18.464Z,25.90
2019-05-20T09:12:46.488Z,25.70
2019-05-20T09:15:14.168Z,25.40
2019-05-20T09:17:41.590Z,25.40
2019-05-20T09:20:11.169Z,25.20
2019-05-20T09:22:39.156Z,25.10
2019-05-20T09:25:07.577Z,25.00
2019-05-20T09:27:36.461Z,24.90
2019-05-20T09:30:05.391Z,24.70
2019-05-20T09:32:35.093Z,24.70
2019-05-20T09:35:04.097Z,24.80
2019-05-20T09:37:33.916Z,24.90
2019-05-20T09:40:01.707Z,25.00
2019-05-20T09:42:31.141Z,24.90
2019-05-20T09:45:02.924Z,24.90
2019-05-20T09:47:29.301Z,24.90
2019-05-20T09:49:57.736Z,24.90
2019-05-20T09:52:25.401Z,25.10
2019-05-20T09:54:53.026Z,25.30
2019-05-20T09:57:21.105Z,25.30
2019-05-20T09:59:48.695Z,25.30
2019-05-20T10:02:16.227Z,25.20
2019-05-20T10:04:43.837Z,25.30
2019-05-20T10:07:11.347Z,25.00
2019-05-20T10:09:39.010Z,25.10
2019-05-20T10:12:06.766Z,25.20
2019-05-20T10:14:34.472Z,25.20
2019-05-20T10:17:02.590Z,25.20
2019-05-20T10:19:30.092Z,25.10
2019-05-20T10:21:57.618Z,24.90
2019-05-20T10:24:25.198Z,24.70
2019-05-20T10:26:52.848Z,24.60
2019-05-20T10:29:20.506Z,24.80
2019-05-20T10:31:48.205Z,25.10
2019-05-20T10:34:16.902Z,26.20
2019-05-20T10:36:44.505Z,28.30
2019-05-20T10:39:12.279Z,30.80
2019-05-20T10:41:39.832Z,31.90
2019-05-20T10:44:07.350Z,32.40
2019-05-20T10:46:34.922Z,33.00
2019-05-20T10:49:02.826Z,33.20
2019-05-20T10:51:30.372Z,32.80
2019-05-20T10:53:58.079Z,31.90
2019-05-20T10:56:25.534Z,31.10
2019-05-20T10:58:53.662Z,30.30
2019-05-20T11:01:21.348Z,30.00
2019-05-20T11:03:48.843Z,30.40
2019-05-20T11:06:16.990Z,31.20
2019-05-20T11:08:44.826Z,33.00
2019-05-20T11:11:14.887Z,34.80
2019-05-20T11:13:42.979Z,35.30
2019-05-20T11:16:10.394Z,35.10
2019-05-20T11:18:38.919Z,34.50
2019-05-20T11:21:10.295Z,33.70
2019-05-20T11:23:37.684Z,33.30
2019-05-20T11:26:05.246Z,33.50
2019-05-20T11:28:32.999Z,33.70
2019-05-20T11:31:01.727Z,33.60
2019-05-20T11:33:29.253Z,33.20
2019-05-20T11:35:57.110Z,32.90
2019-05-20T11:38:25.080Z,32.50
2019-05-20T11:40:52.666Z,32.00
2019-05-20T11:43:20.930Z,31.40
2019-05-20T11:45:48.408Z,30.90
2019-05-20T11:48:15.783Z,30.70
2019-05-20T11:50:43.402Z,30.50
2019-05-20T11:53:12.127Z,30.40
2019-05-20T11:55:39.673Z,30.30
2019-05-20T11:58:15.910Z,30.30
2019-05-20T12:00:37.680Z,30.30
2019-05-20T12:03:05.237Z,30.30
2019-05-20T12:05:35.336Z,30.60
2019-05-20T12:08:05.822Z,31.10
2019-05-20T12:10:33.487Z,31.50
2019-05-20T12:13:02.361Z,31.30
2019-05-20T12:15:30.208Z,30.90
2019-05-20T12:17:58.319Z,30.60
2019-05-20T12:20:25.962Z,30.40
2019-05-20T12:22:53.745Z,30.10
2019-05-20T12:25:21.684Z,29.90
2019-05-20T12:27:49.219Z,29.70
2019-05-20T12:30:17.239Z,29.80
2019-05-20T12:32:45.048Z,29.90
2019-05-20T12:35:12.739Z,30.30
2019-05-20T12:37:40.195Z,30.50
2019-05-20T12:40:09.051Z,30.50
2019-05-20T12:42:36.811Z,30.60
2019-05-20T12:45:05.288Z,30.60
2019-05-20T12:47:33.775Z,30.50
2019-05-20T12:50:01.712Z,30.80
2019-05-20T12:52:29.351Z,30.90
2019-05-20T12:55:06.774Z,31.10
2019-05-20T12:57:26.377Z,31.10
2019-05-20T12:59:53.963Z,30.80
2019-05-20T13:02:21.581Z,30.60
2019-05-20T13:04:49.032Z,30.50
2019-05-20T13:07:16.404Z,30.30
2019-05-20T13:09:45.361Z,30.20
2019-05-20T13:12:13.122Z,30.10
2019-05-20T13:14:40.811Z,30.00
2019-05-20T13:17:08.816Z,29.90
2019-05-20T13:19:37.198Z,29.90
2019-05-20T13:22:04.998Z,29.50
2019-05-20T13:24:32.659Z,29.30
2019-05-20T13:27:00.295Z,29.20
2019-05-20T13:29:27.725Z,29.20
2019-05-20T13:31:55.361Z,29.20
2019-05-20T13:34:22.844Z,29.30
2019-05-20T13:36:50.322Z,29.30
2019-05-20T13:39:18.017Z,29.50
2019-05-20T13:41:45.701Z,29.40
2019-05-20T13:44:13.218Z,29.20
2019-05-20T13:46:40.695Z,29.10
2019-05-20T13:49:09.488Z,28.90
2019-05-20T13:51:38.760Z,28.80
2019-05-20T13:54:06.743Z,28.80
2019-05-20T13:56:34.267Z,28.90
2019-05-20T13:59:01.871Z,28.70
2019-05-20T14:01:29.354Z,28.70
2019-05-20T14:03:57.958Z,28.60
2019-05-20T14:06:25.527Z,28.70
2019-05-20T14:08:53.153Z,28.80
2019-05-20T14:11:33.829Z,28.80
2019-05-20T14:13:50.036Z,28.90
2019-05-20T14:16:17.702Z,29.00
2019-05-20T14:18:45.375Z,29.00
2019-05-20T14:21:13.353Z,29.00
2019-05-20T14:23:40.927Z,28.80
2019-05-20T14:26:08.870Z,29.00
2019-05-20T14:28:36.600Z,29.20
2019-05-20T14:31:06.029Z,29.30
2019-05-20T14:33:34.584Z,29.40
2019-05-20T14:36:02.076Z,29.40
2019-05-20T14:38:31.297Z,29.00
2019-05-20T14:40:58.991Z,28.90
2019-05-20T14:43:27.602Z,28.50
2019-05-20T14:45:55.618Z,28.20
2019-05-20T14:48:25.483Z,27.90
2019-05-20T14:50:53.426Z,27.80
2019-05-20T14:53:20.955Z,27.70
2019-05-20T14:55:48.279Z,27.70
2019-05-20T14:58:15.848Z,27.50
2019-05-20T15:00:43.557Z,27.40
2019-05-20T15:03:11.221Z,27.20
2019-05-20T15:05:39.251Z,26.90
2019-05-20T15:08:08.660Z,26.70
2019-05-20T15:10:39.001Z,26.60
2019-05-20T15:13:07.969Z,26.50
2019-05-20T15:15:41.701Z,26.40
2019-05-20T15:18:09.468Z,26.40
2019-05-20T15:20:37.085Z,26.30
2019-05-20T15:23:07.001Z,26.30
2019-05-20T15:25:35.917Z,26.20
2019-05-20T15:28:04.862Z,26.20
2019-05-20T15:30:34.387Z,26.10
2019-05-20T15:33:02.891Z,26.00
2019-05-20T15:35:35.365Z,25.90
2019-05-20T15:38:05.530Z,25.70
2019-05-20T15:40:36.980Z,25.70
2019-05-20T15:43:04.636Z,25.60
2019-05-20T15:45:33.392Z,25.60
2019-05-20T15:48:01.363Z,25.60
2019-05-20T15:50:29.499Z,25.50
2019-05-20T15:52:57.427Z,25.50
2019-05-20T15:55:25.065Z,25.50
2019-05-20T15:57:55.402Z,25.50
2019-05-20T16:00:24.558Z,25.40
2019-05-20T16:02:52.786Z,25.30
2019-05-20T16:05:20.484Z,25.30
2019-05-20T16:07:50.217Z,25.20
2019-05-20T16:10:18.485Z,25.10
2019-05-20T16:12:46.478Z,25.00
2019-05-20T16:15:16.379Z,25.00
2019-05-20T16:17:48.286Z,24.80
2019-05-20T16:20:14.913Z,24.90
2019-05-20T16:22:42.784Z,24.90
2019-05-20T16:25:10.594Z,24.80
2019-05-20T16:27:39.290Z,24.80
2019-05-20T16:30:08.215Z,24.70
2019-05-20T16:32:36.188Z,24.60
2019-05-20T16:35:05.080Z,24.40
2019-05-20T16:37:33.607Z,24.20
2019-05-20T16:40:01.792Z,24.10
2019-05-20T16:42:29.703Z,24.00
2019-05-20T16:44:57.615Z,23.90
2019-05-20T16:47:25.718Z,23.80
2019-05-20T16:49:53.657Z,23.80
2019-05-20T16:52:21.863Z,23.70
2019-05-20T16:54:50.315Z,23.70
2019-05-20T16:57:19.573Z,23.70
2019-05-20T16:59:47.593Z,23.60
2019-05-20T17:02:15.426Z,23.60
2019-05-20T17:04:44.019Z,23.50
2019-05-20T17:07:13.655Z,23.50
2019-05-20T17:09:41.866Z,23.50
2019-05-20T17:12:10.037Z,23.40
2019-05-20T17:14:37.867Z,23.40
2019-05-20T17:17:05.603Z,23.20
2019-05-20T17:19:33.472Z,23.40
2019-05-20T17:22:01.341Z,23.30
2019-05-20T17:24:29.619Z,23.10
2019-05-20T17:29:49.109Z,22.90
2019-05-20T17:32:17.747Z,22.80
2019-05-20T17:34:45.304Z,22.70
2019-05-20T17:37:13.079Z,22.50
2019-05-20T17:39:40.819Z,22.30
2019-05-20T17:42:08.464Z,22.10
2019-05-20T17:44:36.081Z,21.90
2019-05-20T17:47:03.758Z,21.80
2019-05-20T17:49:31.523Z,21.60
2019-05-20T17:51:59.104Z,21.50
2019-05-20T17:54:28.282Z,21.30
2019-05-20T17:56:55.993Z,21.20
2019-05-20T17:59:23.460Z,20.90
2019-05-20T18:01:51.900Z,20.70
2019-05-20T18:04:19.455Z,20.50
2019-05-20T18:06:47.022Z,20.30
2019-05-20T18:09:15.105Z,20.00
2019-05-20T18:11:42.893Z,19.90
2019-05-20T18:14:10.955Z,19.70
2019-05-20T18:16:38.450Z,19.50
2019-05-20T18:19:06.095Z,19.40
2019-05-20T18:21:33.879Z,19.20
2019-05-20T18:24:01.573Z,19.20
2019-05-20T18:26:29.140Z,19.10
2019-05-20T18:28:56.876Z,19.20
2019-05-20T18:31:32.478Z,19.10
2019-05-20T18:33:54.222Z,19.10
2019-05-20T18:36:22.144Z,19.10
2019-05-20T18:38:50.049Z,19.10
2019-05-20T18:41:17.737Z,19.20
2019-05-20T18:43:45.795Z,19.30
2019-05-20T18:46:19.496Z,19.30
2019-05-20T18:48:46.939Z,19.30
2019-05-20T18:51:14.427Z,19.20
2019-05-20T18:53:42.104Z,19.20
2019-05-20T18:56:10.116Z,19.20
2019-05-20T18:58:37.652Z,19.20
2019-05-20T19:01:06.516Z,19.20
2019-05-20T19:03:36.243Z,19.20
2019-05-20T19:06:07.593Z,19.20
2019-05-20T19:08:50.909Z,19.10
2019-05-20T19:11:20.045Z,19.10
2019-05-20T19:13:49.076Z,19.00
2019-05-20T19:16:18.562Z,18.90
2019-05-20T19:18:46.251Z,18.90
2019-05-20T19:21:18.999Z,18.90
2019-05-20T19:23:50.207Z,18.80
2019-05-20T19:26:24.986Z,18.70
2019-05-20T19:28:50.556Z,18.70
2019-05-20T19:31:18.145Z,18.60
2019-05-20T19:33:45.661Z,18.60
2019-05-20T19:36:13.690Z,18.60
2019-05-20T19:38:50.143Z,18.50
2019-05-20T19:41:23.630Z,18.40
2019-05-20T19:43:52.859Z,18.30
2019-05-20T19:46:20.557Z,18.20
2019-05-20T19:48:48.327Z,18.20
2019-05-20T19:51:16.497Z,18.10
2019-05-20T19:53:44.165Z,18.00
2019-05-20T19:56:12.062Z,17.90
2019-05-20T19:58:39.573Z,17.80
2019-05-20T20:01:07.404Z,17.70
2019-05-20T20:03:44.514Z,17.60
2019-05-20T20:06:15.263Z,17.50
2019-05-20T20:08:54.038Z,17.30
2019-05-20T20:11:25.362Z,17.20
2019-05-20T20:13:55.930Z,17.10
2019-05-20T20:16:23.913Z,17.00
2019-05-20T20:18:51.417Z,16.80
2019-05-20T20:21:19.716Z,16.80
2019-05-20T20:23:48.029Z,16.70
2019-05-20T20:26:15.892Z,16.60
2019-05-20T20:28:44.173Z,16.50
2019-05-20T20:31:12.078Z,16.50
2019-05-20T20:33:39.748Z,16.30
2019-05-20T20:36:08.533Z,16.30
2019-05-20T20:38:36.322Z,16.20
2019-05-20T20:41:03.986Z,16.20
2019-05-20T20:43:33.817Z,16.10
2019-05-20T20:46:01.522Z,16.00
2019-05-20T20:48:28.983Z,15.90
2019-05-20T20:50:57.899Z,15.80
2019-05-20T20:53:25.946Z,15.70
2019-05-20T20:55:55.482Z,15.60
2019-05-20T20:58:24.283Z,15.50
2019-05-20T21:00:51.946Z,15.50
2019-05-20T21:03:20.834Z,15.40
2019-05-20T21:05:48.474Z,15.30
2019-05-20T21:08:16.122Z,15.10
2019-05-20T21:10:43.650Z,15.00
2019-05-20T21:13:11.375Z,14.90
2019-05-20T21:15:43.069Z,14.80
2019-05-20T21:18:10.526Z,14.70
2019-05-20T21:20:38.503Z,14.50
2019-05-20T21:23:06.123Z,14.50
2019-05-20T21:25:33.551Z,14.40
2019-05-20T21:28:01.198Z,14.30
2019-05-20T21:30:29.007Z,14.20
2019-05-20T21:33:08.215Z,14.10
2019-05-20T21:35:25.894Z,14.00
2019-05-20T21:37:53.495Z,13.90
2019-05-20T21:40:20.941Z,13.90
2019-05-20T21:42:48.567Z,13.80
2019-05-20T21:45:16.005Z,13.80
2019-05-20T21:47:44.816Z,13.80
2019-05-20T21:50:12.959Z,13.80
2019-05-20T21:52:40.538Z,13.70
2019-05-20T21:55:08.299Z,13.70
2019-05-20T21:57:35.948Z,13.60
2019-05-20T22:00:04.839Z,13.60
2019-05-20T22:02:33.619Z,13.50
2019-05-20T22:05:01.387Z,13.40
2019-05-20T22:07:30.278Z,13.30
2019-05-20T22:09:57.938Z,13.30
2019-05-20T22:12:26.922Z,13.20
2019-05-20T22:14:54.406Z,13.20
2019-05-20T22:17:24.999Z,13.20
2019-05-20T22:19:52.525Z,13.10
2019-05-20T22:22:28.309Z,13.10
2019-05-20T22:24:55.704Z,13.20
2019-05-20T22:27:23.193Z,13.20
2019-05-20T22:29:50.879Z,13.20
2019-05-20T22:32:18.419Z,13.20
2019-05-20T22:34:53.555Z,13.20
2019-05-20T22:37:15.515Z,13.20
2019-05-20T22:39:43.275Z,13.10
2019-05-20T22:42:11.113Z,13.10
2019-05-20T22:44:38.572Z,13.00
2019-05-20T22:47:06.183Z,12.90
2019-05-20T22:49:33.863Z,13.00
2019-05-20T22:52:01.525Z,12.90
2019-05-20T22:54:30.056Z,12.90
2019-05-20T22:56:57.556Z,12.90
2019-05-20T22:59:25.096Z,12.80
2019-05-20T23:01:52.810Z,12.80
2019-05-20T23:04:20.622Z,12.80
2019-05-20T23:06:48.242Z,12.80
2019-05-20T23:09:15.898Z,12.80
2019-05-20T23:11:43.425Z,12.80
2019-05-20T23:14:11.026Z,12.80
2019-05-20T23:16:38.641Z,12.80
2019-05-20T23:19:06.135Z,12.70
2019-05-20T23:21:33.945Z,12.70
2019-05-20T23:24:01.556Z,12.70
2019-05-20T23:26:29.026Z,12.70
2019-05-20T23:28:56.393Z,12.70
2019-05-20T23:31:24.031Z,12.60
2019-05-20T23:33:51.916Z,12.60
2019-05-20T23:36:19.437Z,12.60
2019-05-20T23:38:48.416Z,12.60
2019-05-20T23:41:16.140Z,12.60
2019-05-20T23:43:43.831Z,12.60
2019-05-20T23:46:11.288Z,12.60
2019-05-20T23:48:38.869Z,12.80
2019-05-20T23:51:06.425Z,12.60
2019-05-20T23:53:33.882Z,12.60
2019-05-20T23:56:01.259Z,12.60
2019-05-20T23:58:31.652Z,12.60
